Reza Mohammadi

Chefscout - Esteghlal
3 Dez 2028
Sonntag
Verarbeitung

Persönlichkeit

Anpassungsfähigkeit (17) Ehrgeiz (11) Kontroverse (14) Loyalität (6) Druck (9) Professionalität (1) Fairness (10) Temperament (2)

Profil

Trainerstil Demokratisch
Lizenz Kontinentale C
Entschlossenheit 6
Menschenführung 8
Motivation 4
Disziplin 12
Arbeitszufriedenheit
100%
Ermüdung
0%
Rolle Chefscout
Gehalt 95.8K p/W
Vertrag 14.03.2029

Leistung

Verhalten Gut
Trainingseffektivität
40%
Spielerentwicklung
25%
Verletzungsprävention
40%
Taktische Umsetzung
65%

Letzte Ereignisse

Nahm an einer Scouting-Besprechung teil 7T her
Empfahl ein Transferziel 7T her
Nahm an einer Scouting-Besprechung teil 14T her
Empfahl ein Transferziel 14T her
Nahm an einer Scouting-Besprechung teil 21T her
Empfahl ein Transferziel 21T her
Nahm an einer Scouting-Besprechung teil 28T her
Empfahl ein Transferziel 28T her

Aktuell beobachtet

290
Spieler Verein Status Fähigkeit Vertrauen Beobachtet Zuletzt beobachtet Letzte Stimme
Marcelo Jorquera Sepahan Aktiv 105 / 96 79% 1 07.08.2028 Befürworten
Álvaro Busso Vélez Aktiv 118 / 112 40% 1 01.08.2028 -
Bark Abdramane AS PSI Aktiv 91 / 89 40% 1 01.08.2028 -
Mohammad Mehdi Mohebi Persepolis Verloren 127 / 113 79% 1 31.07.2028 -
Aref Haji Eydi Sepahan Verloren 111 / 114 79% 1 10.07.2028 -
Jan Bürger Northampton Town Aktiv 126 / 137 40% 2 26.06.2028 -
Josh Nichols Oldham Athletic Aktiv 126 / 134 40% 12 26.06.2028 -
Mehdi Noorafkan Padideh Aktiv 91 / 98 40% 1 26.06.2028 -
Honest Ahanor Atalanta Aktiv 135 / 148 40% 6 12.06.2028 -
Giovanni Leoni Lincoln City Abgelehnt 143 / 155 40% 2 12.06.2028 Mehr Infos nötig
Tyler Fletcher Rotherham United Aktiv 113 / 112 40% 9 06.06.2028 -
Morteza Torabi Malavan Verhandlung 100 / 117 40% 1 06.06.2028 -
Bernardo Lima Porto Aktiv 110 / 122 40% 2 31.05.2028 -
Ibrahim Fullah Charlton Athletic Aktiv 123 / 135 40% 9 30.05.2028 -
Ryan McAidoo Oldham Athletic Aktiv 121 / 132 40% 11 30.05.2028 -
Gabriel Mec Feirense Aktiv 132 / 140 40% 7 29.05.2028 -
Jake Evans Crewe Alexandra Aktiv 112 / 128 40% 7 28.05.2028 -
Ben Broggio Mansfield Town Aktiv 113 / 123 40% 7 28.05.2028 -
Leo Pecover Swindon Town Aktiv 100 / 117 40% 8 28.05.2028 -
Oskar Pietuszewski Estrela da Amadora Aktiv 130 / 126 40% 5 27.05.2028 -
Alphadjo Cissé Lecce Aktiv 135 / 131 40% 3 27.05.2028 -
Ryan Kavuma-McQueen Accrington Stanley Aktiv 117 / 125 40% 10 25.05.2028 -
Kerim Alajbegović Modena Aktiv 133 / 135 40% 3 24.05.2028 -
Shea Lacey Crystal Palace Aktiv 137 / 141 40% 3 24.05.2028 -
Jorthy Mokio ADO Den Haag Aktiv 132 / 139 40% 1 24.05.2028 -
Simone Suppa Virtus Verona Aktiv 87 / 84 40% 1 21.05.2028 -
Babis Kostoulas Oxford United Aktiv 142 / 142 40% 7 20.05.2028 -
Eli Junior Kroupi Bournemouth Aktiv 143 / 160 40% 17 20.05.2028 -
Christos Mouzakitis Hull City Aktiv 139 / 135 40% 4 19.05.2028 -
Rio Ngumoha Plymouth Argyle Aktiv 138 / 141 40% 5 19.05.2028 -
Andrea Cogoni Cosenza Aktiv 110 / 109 40% 1 18.05.2028 -
Luca Williams-Barnett Walsall Aktiv 123 / 135 40% 8 15.05.2028 -
Igor Tyjon Barrow AFC Aktiv 118 / 127 40% 10 13.05.2028 -
Fletcher Boyd Accrington Stanley Aktiv 100 / 104 40% 1 11.05.2028 -
Siyabonga Mabena Bidvest Wits Aktiv 122 / 129 40% 19 08.05.2028 -
Luca Meirelles Kudrivka Aktiv 126 / 138 40% 8 05.05.2028 -
Amin Nabizada Exeter City Aktiv 111 / 116 40% 4 02.05.2028 -
Romelle Donovan Brentford Aktiv 129 / 139 40% 2 02.05.2028 -
Oscar Schwartau Norwich City Aktiv 129 / 133 40% 2 30.04.2028 -
Daniel Banjaqui Benfica Aktiv 127 / 127 40% 1 28.04.2028 -
Gabe Forsyth Colchester United Aktiv 108 / 108 40% 5 24.04.2028 -
André Miranda Porto Aktiv 115 / 127 40% 3 23.04.2028 -
Omar Khedr Gillingham Aktiv 110 / 118 40% 4 20.04.2028 -
Josh Acheampong Everton Aktiv 139 / 152 40% 4 16.04.2028 -
Henrique Carmo Sochi Aktiv 123 / 125 40% 2 06.04.2028 -
Trey Nyoni Rotherham United Aktiv 133 / 148 40% 3 22.03.2028 -
Nana Nuhu WAFA Aktiv 96 / 110 40% 3 19.03.2028 -
Alejo Antilef Saipa Abgelehnt 122 / 127 72% 1 17.01.2028 Ablehnen
Tiziano Delias Sarmiento Aktiv 101 / 87 40% 2 01.01.2028 -
Nikita Dovnar Niva Aktiv 71 / 100 40% 1 01.01.2028 -
Jayden Danns Bradford City Aktiv 137 / 145 40% 3 30.12.2027 -
Joshua Ajala Walsall Aktiv 96 / 111 40% 1 30.12.2027 -
Stanley Amon Bayelsa United Aktiv 93 / 101 40% 3 29.12.2027 -
Facundo Rodríguez Talleres Aktiv 87 / 111 40% 1 29.12.2027 -
Dylan Cabral Arsenal Aktiv 112 / 124 40% 11 28.12.2027 -
Artur Kozyrev Volna Aktiv 93 / 88 40% 2 27.12.2027 -
Maren Kefas Plateau United Aktiv 90 / 88 40% 12 25.12.2027 -
Luighi Palmeiras Aktiv 115 / 107 40% 6 25.12.2027 -
Dániel Pintér Inter Miami CF Aktiv 87 / 111 40% 5 23.12.2027 -
Abolfazl Zadehattar Saipa Aktiv 115 / 125 40% 1 21.12.2027 -
Luka Andrade Montevideo City Torque Aktiv 106 / 102 40% 11 19.12.2027 -
Rafael Moreno Atletico Venezuela Aktiv 118 / 97 40% 7 15.12.2027 -
Julian Hall Real Salt Lake Aktiv 94 / 98 40% 3 15.12.2027 -
Sindre Walle Egeli Udinese Aktiv 140 / 143 40% 1 14.12.2027 -
Ruben Ramos LA Galaxy Aktiv 99 / 93 40% 8 12.12.2027 -
Daniel Johan Skaarud Sandefjord Aktiv 113 / 122 40% 4 10.12.2027 -
Senny Mayulu Paris Saint-Germain Aktiv 151 / 143 40% 1 07.12.2027 -
Julián Bragado Morón Aktiv 84 / 97 40% 2 06.12.2027 -
Joseph Abah Remo Stars Aktiv 81 / 99 40% 3 06.12.2027 -
Idris Ajiya Nasarawa United Aktiv 79 / 93 40% 4 04.12.2027 -
Tiago Pucciarelli IF Elfsborg Aktiv 107 / 87 40% 4 04.12.2027 -
Omar Bautista Gerez Central Córdoba SdE Aktiv 86 / 84 40% 2 30.11.2027 -
Ramiro Buratti River Plate Aktiv 85 / 98 40% 1 27.11.2027 -
Jack Wint Sibenik Aktiv 108 / 95 40% 1 27.11.2027 -
Juan Rodríguez Cerro Largo Aktiv 86 / 119 40% 2 25.11.2027 -
Amaury Morales Leon Aktiv 121 / 116 40% 2 23.11.2027 -
Elion Krosa Odd Aktiv 97 / 106 40% 1 18.11.2027 -
Kevin Filling AIK Aktiv 105 / 131 40% 1 17.11.2027 -
Yegor Koshkin Pobeda Aktiv 82 / 87 40% 1 16.11.2027 -
Emiliano Zacca Deportivo Riestra Aktiv 95 / 97 40% 2 15.11.2027 -
Tobías Pantoja Central Norte Aktiv 91 / 109 40% 1 15.11.2027 -
Martín Almeida Montevideo City Torque Aktiv 98 / 101 40% 1 15.11.2027 -
Hassan Beja AFC Leopards Aktiv 96 / 103 40% 5 12.11.2027 -
Mateus Mané Burnley Aktiv 138 / 150 40% 1 12.11.2027 -
Luis Yanes Real Cartagena Aktiv 102 / 92 40% 1 06.11.2027 -
Miloš Luković RC Strasbourg Aktiv 126 / 135 40% 2 05.11.2027 -
Naphtali Mokoena Bloemfontein Celtic Aktiv 95 / 123 40% 1 05.11.2027 -
Alex Verón Vélez Aktiv 124 / 122 40% 2 10.10.2027 -
Nicolás Barros Schelotto Gimnasia La Plata Aktiv 111 / 143 40% 2 10.10.2027 -
Mateo Peralta Danubio Aktiv 109 / 130 40% 2 09.10.2027 -
Matias Siltanen Malmo FF Aktiv 114 / 149 40% 2 09.10.2027 -
Giovanni Baroni Talleres Aktiv 118 / 115 40% 1 08.10.2027 -
Ben Gannon Doak Charlton Athletic Aktiv 151 / 161 40% 2 07.10.2027 -
Abubakar Garba Nasarawa United Aktiv 93 / 93 40% 6 06.10.2027 -
Mustapha Umar Kano Pillars Aktiv 92 / 82 40% 1 06.10.2027 -
Wisdom Udom Bendel Insurance Aktiv 89 / 97 40% 1 05.10.2027 -
Joel Ezra Enyimba Aktiv 89 / 94 40% 2 03.10.2027 -
Emmanuel Ndubueze Shooting Stars Aktiv 91 / 108 40% 5 02.10.2027 -
Jeremías Merlo Gimnasia La Plata Aktiv 131 / 129 40% 2 01.10.2027 -
Abdoulaye Allamine Stars Jeunes Talents Aktiv 76 / 81 40% 1 01.10.2027 -
Alex Amaefula Kun Khalifat Aktiv 84 / 76 40% 3 29.09.2027 -
Nupe Godstime Bayelsa United Aktiv 83 / 86 40% 3 29.09.2027 -
Abdulrahman Hamisu Niger Tornadoes Aktiv 89 / 92 40% 1 28.09.2027 -
Didier Dawson Envigado Aktiv 108 / 106 40% 1 27.09.2027 -
Matías Arias Vélez Aktiv 115 / 112 40% 3 18.09.2027 -
Victor Hernandez Santa Fe Aktiv 114 / 142 40% 1 18.09.2027 -
Chimobi Igwilo Rangers International Aktiv 83 / 93 40% 1 14.09.2027 -
Lucas Camejo River Plate Aktiv 86 / 91 40% 1 13.09.2027 -
David Eke Enyimba Aktiv 85 / 103 40% 1 07.09.2027 -
Wandile Duba ASO Chlef Aktiv 100 / 91 40% 1 30.08.2027 -
Kamaldeen Essien Liberty Professionals Aktiv 116 / 123 40% 1 30.08.2027 -
Alejo Dramisino Atlanta Aktiv 110 / 121 40% 1 24.08.2027 -
Mitchel Bakker Modena Aktiv 139 / 126 40% 1 17.08.2027 -
Thierry Rendall Correia Venezia Aktiv 141 / 139 40% 1 16.08.2027 -
Martin Baturina Como Aktiv 148 / 145 40% 1 16.08.2027 -
Sascha Britschgi AC Milan Aktiv 125 / 120 40% 1 15.08.2027 -
Pedro de la Vega Columbus Crew Aktiv 142 / 143 40% 1 10.08.2027 -
Ryoya Morishita Blackburn Rovers Aktiv 126 / 123 40% 3 09.08.2027 -
Malik Mothersille Stockport County Aktiv 123 / 116 40% 2 09.08.2027 -
Finn Azaz Southampton Aktiv 131 / 130 40% 1 09.08.2027 -
Daniel Kyerewaa Reading Aktiv 126 / 123 40% 2 08.08.2027 -
Callum O'Hare Sheffield United Aktiv 130 / 137 40% 1 08.08.2027 -
Brooke Norton-Cuffy Hull City Aktiv 146 / 136 40% 3 07.08.2027 -
Harry Wilson Leeds United Aktiv 154 / 139 40% 1 07.08.2027 -
Joe Gelhardt Hull City Aktiv 141 / 139 40% 1 06.08.2027 -
Tatsuhiro Sakamoto Coventry City Aktiv 126 / 140 40% 1 06.08.2027 -
Max Bird Birmingham Aktiv 142 / 128 40% 11 05.08.2027 -
Cian Ashford Cardiff City Aktiv 125 / 133 40% 1 05.08.2027 -
Isaiah Jones Luton Town Aktiv 124 / 134 40% 1 04.08.2027 -
Giacomo Raspadori Atalanta Aktiv 147 / 147 40% 1 04.08.2027 -
Samuel Edozie Southampton Aktiv 136 / 119 40% 3 03.08.2027 -
Ali Ahmed Norwich City Aktiv 125 / 128 40% 1 03.08.2027 -
Marcus McGuane Huddersfield Town Aktiv 125 / 132 40% 3 02.08.2027 -
Radinio Balker Huddersfield Town Aktiv 127 / 120 40% 5 02.08.2027 -
Ethan Williams Peterborough United Aktiv 119 / 122 40% 2 02.08.2027 -
Hector Kyprianou Watford Aktiv 123 / 121 40% 2 02.08.2027 -
Stevan Manuel Benfica Aktiv 97 / 107 40% 1 02.08.2027 -
Harry Clarke Preston Aktiv 134 / 135 40% 5 01.08.2027 -
Hidemasa Morita Hull City Aktiv 144 / 154 40% 9 31.07.2027 -
Bosun Lawal Stoke City Aktiv 132 / 128 40% 4 31.07.2027 -
Max Conway Bolton Wanderers Aktiv 126 / 115 40% 1 31.07.2027 -
Tyrese Campbell Sheffield United Aktiv 134 / 131 40% 1 31.07.2027 -
Tomáš Rigo Stoke City Aktiv 130 / 138 40% 1 31.07.2027 -
Scott Twine Bristol City Aktiv 125 / 135 40% 1 30.07.2027 -
Shea Charles Southampton Aktiv 141 / 135 40% 6 29.07.2027 -
Terry Devlin Portsmouth Aktiv 123 / 114 40% 3 29.07.2027 -
Ronnie Edwards Queens Park Rangers Aktiv 133 / 124 40% 1 29.07.2027 -
Lloyd Jones Charlton Athletic Aktiv 131 / 141 40% 1 27.07.2027 -
Jacques Ekomié Wrexham Aktiv 130 / 125 40% 3 26.07.2027 -
Harrison Burrows Sheffield United Aktiv 137 / 123 40% 2 26.07.2027 -
João Abreu Porto Aktiv 96 / 112 40% 1 26.07.2027 -
Calum Agius Crewe Alexandra Aktiv 94 / 112 40% 1 26.07.2027 -
Dennis Cirkin Queens Park Rangers Aktiv 135 / 130 40% 8 25.07.2027 -
Ethan Pye Stockport County Aktiv 126 / 124 40% 5 24.07.2027 -
Derry Murkin Derby County Aktiv 132 / 131 40% 3 24.07.2027 -
Matt Clarke Derby County Aktiv 130 / 134 40% 2 24.07.2027 -
Mikey Johnston West Bromwich Albion Aktiv 129 / 113 40% 1 24.07.2027 -
Jack Diamond Stockport County Aktiv 117 / 110 40% 1 23.07.2027 -
David Turnbull Cardiff City Aktiv 126 / 129 40% 1 23.07.2027 -
Luke McNally Bristol City Aktiv 132 / 128 40% 6 21.07.2027 -
Tariq Lamptey Queens Park Rangers Aktiv 138 / 125 40% 2 20.07.2027 -
Othmane Maamma Watford Aktiv 129 / 134 40% 2 20.07.2027 -
Nestory Irankunda Watford Aktiv 130 / 132 40% 1 20.07.2027 -
Asanele Bonani Chippa United Aktiv 103 / 84 40% 1 20.07.2027 -
Welington Southampton Aktiv 142 / 136 40% 5 19.07.2027 -
Andy Rinomhota Reading Aktiv 120 / 117 40% 4 19.07.2027 -
Chris Mepham West Bromwich Albion Aktiv 131 / 130 40% 2 18.07.2027 -
Araphat Mohammed Ashanti Gold Aktiv 102 / 107 40% 1 18.07.2027 -
Will Fish Cardiff City Aktiv 126 / 131 40% 1 18.07.2027 -
Ben Nelson Leicester City Aktiv 132 / 130 40% 1 17.07.2027 -
Aidan Morris Middlesbrough Aktiv 139 / 138 40% 4 15.07.2027 -
Max Johnston Derby County Aktiv 131 / 124 40% 6 12.07.2027 -
Alfie Gilchrist West Bromwich Albion Aktiv 125 / 122 40% 1 12.07.2027 -
Jack Currie Oxford United Aktiv 124 / 121 40% 7 07.07.2027 -
Japhet Tanganga Sheffield United Aktiv 141 / 135 40% 2 07.07.2027 -
Michael Baidoo Plymouth Argyle Aktiv 136 / 119 40% 1 06.07.2027 -
Lisandro Tejada San Martín SJ Aktiv 91 / 77 40% 2 21.06.2027 -
Giovanni Stellato Guidonia Montecelio Aktiv 84 / 100 40% 1 21.06.2027 -
Lewis Bate Stockport County Aktiv 130 / 120 40% 2 20.06.2027 -
Alfie Doughty Millwall Aktiv 124 / 123 40% 3 15.06.2027 -
Sorba Thomas Stoke City Aktiv 131 / 141 40% 1 31.05.2027 -
Milan van Ewijk Coventry City Aktiv 126 / 136 40% 3 24.05.2027 -
Toby Collyer West Bromwich Albion Aktiv 132 / 143 40% 4 22.05.2027 -
Perry Ng Cardiff City Aktiv 123 / 113 40% 1 20.05.2027 -
Dara O'Shea Ipswich Town Aktiv 142 / 135 40% 6 19.05.2027 -
Callum Brittain Middlesbrough Aktiv 128 / 135 40% 4 18.05.2027 -
Habib Diarra Sunderland Aktiv 139 / 153 40% 4 09.05.2027 -
Lewis Gibson Preston Aktiv 129 / 128 40% 2 05.05.2027 -
Florentino Luís Ipswich Town Aktiv 135 / 152 40% 4 03.05.2027 -
Lucas Da Cunha Como Aktiv 145 / 139 40% 3 03.05.2027 -
Tom Hamer Lincoln City Aktiv 119 / 103 40% 1 30.04.2027 -
Morgan Billiat SuperSport United Aktiv 134 / 100 40% 8 19.04.2027 -
Hamza Choudhury Leicester City Aktiv 129 / 128 40% 1 18.04.2027 -
Pelle Mattsson Norwich City Aktiv 125 / 133 40% 1 17.04.2027 -
Jacob Greaves Ipswich Town Aktiv 140 / 134 40% 5 16.04.2027 -
Azor Matusiwa Ipswich Town Aktiv 136 / 136 40% 4 15.04.2027 -
Oliver Skipp Leicester City Aktiv 136 / 140 40% 4 14.04.2027 -
Adam Randell Bristol City Aktiv 130 / 119 40% 2 14.04.2027 -
Brian De Keersmaecker Oxford United Aktiv 130 / 117 40% 1 14.04.2027 -
Joel Bagan Cardiff City Aktiv 120 / 110 40% 4 13.04.2027 -
Toti Wolverhampton Aktiv 129 / 143 40% 1 27.03.2027 -
Connor Ogilvie Grimsby Town Aktiv 109 / 121 40% 1 27.03.2027 -
Igor Burnley Aktiv 142 / 141 40% 1 26.03.2027 -
Lewis O'Brien Wrexham Aktiv 119 / 123 40% 1 25.03.2027 -
Marc Bola Watford Aktiv 126 / 130 40% 1 19.03.2027 -
Alfie Jones Middlesbrough Aktiv 130 / 122 40% 1 12.03.2027 -
Deano Van Rooyen SuperSport United Aktiv 122 / 96 40% 8 04.03.2027 -
Fawaaz Basadien Mamelodi Sundowns Aktiv 122 / 109 40% 1 02.03.2027 -
Tomáš Souček West Ham United Aktiv 132 / 140 40% 1 26.02.2027 -
Jordan Lotomba Bloemfontein Celtic Aktiv 124 / 115 40% 3 20.02.2027 -
Tibor Halilović Tractor Aktiv 122 / 110 40% 2 18.02.2027 -
Will Hughes Bloemfontein Celtic Aktiv 135 / 115 40% 3 18.02.2027 -
Kaveh Mohammadi Gostaresh Foulad Aktiv 126 / 107 40% 1 18.02.2027 -
Teboho Mokoena Mamelodi Sundowns Aktiv 125 / 127 40% 4 17.02.2027 -
Álvaro Medrán Al-Ettifaq Aktiv 127 / 115 40% 2 17.02.2027 -
João Cancelo Spartak Moscow Abgelehnt 144 / 143 40% 4 13.02.2027 Ablehnen
Gedson Fernandes Spartak Moscow Aktiv 139 / 149 40% 1 13.02.2027 -
Leeroy Owusu Hearts of Oak Aktiv 111 / 109 40% 1 13.02.2027 -
Álex Centelles Levski Aktiv 138 / 125 40% 3 12.02.2027 -
Igor Postonjski Tractor Aktiv 128 / 120 40% 1 12.02.2027 -
Son Ludogorets Aktiv 115 / 135 40% 1 11.02.2027 -
Billy Gilmour Napoli Aktiv 147 / 152 40% 1 11.02.2027 -
Khuliso Mudau Mamelodi Sundowns Aktiv 123 / 120 40% 1 09.02.2027 -
Thalente Mbatha Orlando Pirates Aktiv 126 / 99 40% 1 05.02.2027 -
Milad Zakipour Tractor Aktiv 105 / 120 40% 2 04.02.2027 -
Aldair Faustino Levski Aktiv 114 / 131 40% 2 02.02.2027 -
Wilfried Kanga Al-Fateh Aktiv 126 / 119 40% 1 25.01.2027 -
Mohammad Hosseini Malavan Aktiv 120 / 128 40% 1 25.01.2027 -
Saeid Pouraliganji Rah Ahan Abgelehnt 118 / 107 40% 1 11.01.2027 -
Amir Hossein Hosseinzadeh Tractor Aktiv 124 / 118 40% 4 01.01.2027 -
Bradley Zwane SuperSport United Aktiv 121 / 127 40% 7 31.12.2026 -
Oston O'runov Persepolis Aktiv 130 / 122 40% 8 31.12.2026 -
Marquinhos Spartak Moscow Aktiv 136 / 107 40% 2 31.12.2026 -
Steven Bergwijn Al-Ittihad Aktiv 146 / 158 40% 3 30.12.2026 -
Milad Yazdani Siah Jamegan Aktiv 125 / 117 40% 5 28.12.2026 -
Oswin Appollis Orlando Pirates Aktiv 112 / 136 40% 8 25.12.2026 -
Zoltan Kleinheisler Haladas Aktiv 95 / 85 40% 2 24.12.2026 -
Thiago Perruisset Boca Juniors Aktiv 88 / 92 40% 1 24.12.2026 -
Bongani Zungu Ajax Cape Town Aktiv 130 / 114 40% 2 19.12.2026 -
Armstrong Oko-Flex Levski Aktiv 116 / 127 40% 1 19.12.2026 -
Marcelo Allende Mamelodi Sundowns Aktiv 136 / 125 40% 6 18.12.2026 -
Oscar Al-Taawoun Aktiv 150 / 131 40% 2 18.12.2026 -
Ikenna Nkwazema FC Diarra Aktiv 73 / 88 40% 1 15.12.2026 -
Manu Morlanes Mallorca Aktiv 135 / 131 40% 1 15.12.2026 -
Dion Lopy Al-Ittihad Aktiv 121 / 143 40% 1 15.12.2026 -
Domagoj Drožđek Tractor Aktiv 126 / 121 40% 5 13.12.2026 -
Petar Stanić Ludogorets Aktiv 148 / 123 40% 1 11.12.2026 -
Lebogang Manyama SuperSport United Aktiv 104 / 110 40% 2 04.12.2026 -
Mandla Kekana Ajax Cape Town Aktiv 108 / 110 40% 1 04.12.2026 -
Marko Grujić Levski Aktiv 130 / 117 40% 1 04.12.2026 -
Odiljon Hamrobekov Tractor Aktiv 122 / 113 40% 2 30.11.2026 -
Douglas Augusto Krasnodar Aktiv 142 / 140 40% 1 30.11.2026 -
Edu Expósito Espanyol Aktiv 139 / 128 40% 6 25.11.2026 -
Alexandr Chernikov Krasnodar Aktiv 132 / 153 40% 1 23.11.2026 -
Óscar Al-Diriyah Aktiv 127 / 129 40% 1 22.11.2026 -
Reda Khadra Qarabag Aktiv 132 / 149 40% 3 12.11.2026 -
Lucas Souto Defensa y Justicia Aktiv 121 / 107 40% 2 09.11.2026 -
Jakub Badžgoň MSK Zilina Aktiv 93 / 109 40% 1 06.11.2026 -
Jens Petter Hauge Bodo/Glimt Aktiv 131 / 142 40% 3 31.10.2026 -
Mariano Bracamonte Deportivo Riestra Aktiv 109 / 116 40% 1 30.10.2026 -
Lisandro Musso Central Córdoba SdE Aktiv 76 / 112 40% 1 20.10.2026 -
Camilo Salamanca Unión de Santa Fe Aktiv 91 / 94 40% 1 15.10.2026 -
Renato Ardissono San Lorenzo Aktiv 73 / 99 40% 1 15.10.2026 -
Favour Bala Plateau United Aktiv 83 / 76 40% 1 13.10.2026 -
Agustín Albrini Independiente Rivadavia Aktiv 93 / 119 40% 1 13.10.2026 -
Franco Cristaldo Talleres Aktiv 139 / 108 40% 2 09.10.2026 -
Bernard Tekpetey Ludogorets Aktiv 117 / 121 40% 1 04.10.2026 -
Felipe Igón Racing Club Aktiv 79 / 94 40% 1 04.10.2026 -
Biola Sabitu Remo Stars Aktiv 97 / 107 40% 1 03.10.2026 -
Luis Mateus Atletico Bucaramanga Aktiv 84 / 101 40% 1 29.09.2026 -
Agustín Ayala Gimnasia La Plata Aktiv 84 / 66 40% 1 29.09.2026 -
Brian Orosco Godoy Cruz Aktiv 110 / 110 40% 2 25.09.2026 -
Patrick Maswanganyi Orlando Pirates Aktiv 111 / 126 40% 1 24.09.2026 -
Imran Oulad Omar Dinamo Batumi Aktiv 128 / 100 40% 2 20.09.2026 -
Jonathan Levi Ferencvaros Aktiv 114 / 142 40% 1 19.09.2026 -
Matías Pellegrini Vélez Aktiv 126 / 137 40% 1 19.09.2026 -
Maxim De Cuyper Brighton Aktiv 134 / 138 40% 1 17.09.2026 -
James Wright Oxford United Aktiv 75 / 100 40% 1 17.09.2026 -
Jerónimo Gutiérrez Independiente Rivadavia Aktiv 81 / 70 40% 1 14.09.2026 -
Franco Yennerich Talleres Aktiv 88 / 96 40% 1 13.09.2026 -
Pedro Silva Torrejón Gimnasia La Plata Aktiv 122 / 140 40% 1 10.09.2026 -
Ramiro Ruiz Rodríguez Atlético Tucumán Aktiv 122 / 106 40% 1 09.09.2026 -
Ignacio Coscio Huracán Aktiv 87 / 111 40% 1 09.09.2026 -
Ezequiel Zapata Rosario Central Aktiv 88 / 75 40% 1 07.09.2026 -
Francisco Mongelos Sportivo Luqueno Aktiv 95 / 96 40% 1 07.09.2026 -
Enzo Gramajo Vélez Aktiv 72 / 78 40% 1 05.09.2026 -
Keanu Cupido Mamelodi Sundowns Aktiv 127 / 123 40% 1 31.08.2026 -
Juan Camilo Pérez Carabobo Aktiv 112 / 134 40% 1 19.08.2026 -
Renzo Garcés Alianza Lima Aktiv 109 / 105 40% 1 05.08.2026 -
Dwight McNeil Crystal Palace Aktiv 133 / 138 40% 1 01.08.2026 -